St Pete Beach, Florida
Current Conditions -  °F | °C
As of 4:53 AM on Monday 20 Oct 2014 (Local Time) from KSPG Reporting Station
Clear Clear  
Wind Chill: 72°   Ceiling: Unl
Heat Index: 72°   Visibility: 10mi
Dew Point: 67°   Wind: 8mph
Humidity: 84%   Direction: 90°E
Pressure: 30"   Gusts: NA
Location:  27.7426°N, 82.7481°W
Report Text: KSPG 200853Z AUTO 09007KT 10SM CLR 22/19 A3000 RMK AO2 SLP157 T02220194 56009
Loading
Personal Weather Stations






























Interactive Weather Map New forecast layout! Learn more

10-Day Weather Forecast

Advertisements
Track Severe Weather on mobile